sensor_id;sensor_type;location;lat;lon;timestamp;P1;durP1;ratioP1;P2;durP2;ratioP2
7659;SDS011;3872;47.902;8.162;2023-02-23T00:01:56;6.50;;;2.70;;
7659;SDS011;3872;47.902;8.162;2023-02-23T00:04:25;6.83;;;2.30;;
7659;SDS011;3872;47.902;8.162;2023-02-23T00:06:53;4.70;;;2.00;;
7659;SDS011;3872;47.902;8.162;2023-02-23T00:09:19;6.10;;;1.83;;
7659;SDS011;3872;47.902;8.162;2023-02-23T00:11:48;7.97;;;2.37;;
7659;SDS011;3872;47.902;8.162;2023-02-23T00:14:14;4.77;;;1.77;;
7659;SDS011;3872;47.902;8.162;2023-02-23T00:16:41;6.90;;;1.60;;
7659;SDS011;3872;47.902;8.162;2023-02-23T00:19:09;4.83;;;1.90;;
7659;SDS011;3872;47.902;8.162;2023-02-23T00:21:38;7.70;;;2.07;;
7659;SDS011;3872;47.902;8.162;2023-02-23T00:24:08;4.30;;;1.30;;
7659;SDS011;3872;47.902;8.162;2023-02-23T00:26:37;4.17;;;1.37;;
7659;SDS011;3872;47.902;8.162;2023-02-23T00:29:06;4.43;;;1.20;;
7659;SDS011;3872;47.902;8.162;2023-02-23T00:31:34;4.70;;;1.63;;
7659;SDS011;3872;47.902;8.162;2023-02-23T00:34:03;5.10;;;1.67;;
7659;SDS011;3872;47.902;8.162;2023-02-23T00:36:32;4.17;;;1.30;;
7659;SDS011;3872;47.902;8.162;2023-02-23T00:39:00;4.47;;;1.23;;
7659;SDS011;3872;47.902;8.162;2023-02-23T00:41:37;5.60;;;1.50;;
7659;SDS011;3872;47.902;8.162;2023-02-23T00:44:06;4.00;;;1.50;;
7659;SDS011;3872;47.902;8.162;2023-02-23T00:46:33;4.43;;;1.40;;
7659;SDS011;3872;47.902;8.162;2023-02-23T00:48:59;3.90;;;1.23;;
7659;SDS011;3872;47.902;8.162;2023-02-23T00:51:26;6.30;;;1.80;;
7659;SDS011;3872;47.902;8.162;2023-02-23T00:53:55;3.73;;;1.10;;
7659;SDS011;3872;47.902;8.162;2023-02-23T00:56:22;5.50;;;1.30;;
7659;SDS011;3872;47.902;8.162;2023-02-23T00:58:50;3.60;;;1.40;;
7659;SDS011;3872;47.902;8.162;2023-02-23T01:01:17;9.83;;;1.70;;
7659;SDS011;3872;47.902;8.162;2023-02-23T01:03:44;4.80;;;1.53;;
7659;SDS011;3872;47.902;8.162;2023-02-23T01:06:12;5.77;;;1.63;;
7659;SDS011;3872;47.902;8.162;2023-02-23T01:08:40;5.80;;;1.30;;
7659;SDS011;3872;47.902;8.162;2023-02-23T01:11:10;3.93;;;1.10;;
7659;SDS011;3872;47.902;8.162;2023-02-23T01:13:37;4.53;;;1.30;;
7659;SDS011;3872;47.902;8.162;2023-02-23T01:16:06;4.17;;;1.20;;
7659;SDS011;3872;47.902;8.162;2023-02-23T01:18:35;3.67;;;1.37;;
7659;SDS011;3872;47.902;8.162;2023-02-23T01:21:02;5.50;;;1.20;;
7659;SDS011;3872;47.902;8.162;2023-02-23T01:23:31;10.40;;;1.40;;
7659;SDS011;3872;47.902;8.162;2023-02-23T01:25:58;6.10;;;1.77;;
7659;SDS011;3872;47.902;8.162;2023-02-23T01:28:24;3.90;;;1.30;;
7659;SDS011;3872;47.902;8.162;2023-02-23T01:30:51;5.07;;;1.00;;
7659;SDS011;3872;47.902;8.162;2023-02-23T01:33:19;5.30;;;1.80;;
7659;SDS011;3872;47.902;8.162;2023-02-23T01:35:55;4.83;;;1.10;;
7659;SDS011;3872;47.902;8.162;2023-02-23T01:38:22;3.60;;;1.10;;
7659;SDS011;3872;47.902;8.162;2023-02-23T01:40:49;3.80;;;1.00;;
7659;SDS011;3872;47.902;8.162;2023-02-23T01:43:16;4.77;;;1.10;;
7659;SDS011;3872;47.902;8.162;2023-02-23T01:45:45;3.87;;;1.17;;
7659;SDS011;3872;47.902;8.162;2023-02-23T01:48:13;5.20;;;1.27;;
7659;SDS011;3872;47.902;8.162;2023-02-23T01:50:44;4.77;;;1.37;;
7659;SDS011;3872;47.902;8.162;2023-02-23T01:53:16;5.63;;;1.10;;
7659;SDS011;3872;47.902;8.162;2023-02-23T01:55:45;4.80;;;1.20;;
7659;SDS011;3872;47.902;8.162;2023-02-23T01:58:14;7.13;;;1.20;;
7659;SDS011;3872;47.902;8.162;2023-02-23T02:00:45;3.80;;;1.23;;
7659;SDS011;3872;47.902;8.162;2023-02-23T02:03:16;5.60;;;1.40;;
7659;SDS011;3872;47.902;8.162;2023-02-23T02:05:49;5.17;;;1.10;;
7659;SDS011;3872;47.902;8.162;2023-02-23T02:08:16;9.30;;;1.40;;
7659;SDS011;3872;47.902;8.162;2023-02-23T02:10:48;3.43;;;1.07;;
7659;SDS011;3872;47.902;8.162;2023-02-23T02:13:20;7.27;;;1.03;;
7659;SDS011;3872;47.902;8.162;2023-02-23T02:15:53;3.90;;;1.10;;
7659;SDS011;3872;47.902;8.162;2023-02-23T02:18:32;5.27;;;1.60;;
7659;SDS011;3872;47.902;8.162;2023-02-23T02:30:12;3.80;;;1.10;;
7659;SDS011;3872;47.902;8.162;2023-02-23T02:33:08;7.30;;;1.20;;
7659;SDS011;3872;47.902;8.162;2023-02-23T02:35:55;5.50;;;0.90;;
7659;SDS011;3872;47.902;8.162;2023-02-23T02:38:45;3.73;;;0.90;;
7659;SDS011;3872;47.902;8.162;2023-02-23T02:41:19;6.20;;;1.30;;
7659;SDS011;3872;47.902;8.162;2023-02-23T02:43:54;5.50;;;1.07;;
7659;SDS011;3872;47.902;8.162;2023-02-23T02:46:25;4.40;;;1.40;;
7659;SDS011;3872;47.902;8.162;2023-02-23T02:48:55;4.10;;;1.43;;
7659;SDS011;3872;47.902;8.162;2023-02-23T02:51:30;5.60;;;1.43;;
7659;SDS011;3872;47.902;8.162;2023-02-23T02:54:05;6.53;;;1.20;;
7659;SDS011;3872;47.902;8.162;2023-02-23T02:56:39;6.13;;;1.50;;
7659;SDS011;3872;47.902;8.162;2023-02-23T02:59:09;3.63;;;1.10;;
7659;SDS011;3872;47.902;8.162;2023-02-23T03:01:55;5.10;;;1.20;;
7659;SDS011;3872;47.902;8.162;2023-02-23T03:04:40;4.00;;;1.27;;
7659;SDS011;3872;47.902;8.162;2023-02-23T03:07:25;3.87;;;1.10;;
7659;SDS011;3872;47.902;8.162;2023-02-23T03:10:17;4.03;;;0.93;;
7659;SDS011;3872;47.902;8.162;2023-02-23T03:13:14;3.70;;;1.20;;
7659;SDS011;3872;47.902;8.162;2023-02-23T03:16:11;3.70;;;1.00;;
7659;SDS011;3872;47.902;8.162;2023-02-23T03:19:07;7.70;;;1.13;;
7659;SDS011;3872;47.902;8.162;2023-02-23T03:21:59;7.97;;;1.70;;
7659;SDS011;3872;47.902;8.162;2023-02-23T03:24:59;3.70;;;1.07;;
7659;SDS011;3872;47.902;8.162;2023-02-23T03:27:50;10.90;;;1.37;;
7659;SDS011;3872;47.902;8.162;2023-02-23T03:30:41;4.70;;;1.30;;
7659;SDS011;3872;47.902;8.162;2023-02-23T03:33:32;4.73;;;1.70;;
7659;SDS011;3872;47.902;8.162;2023-02-23T03:36:24;11.90;;;1.33;;
7659;SDS011;3872;47.902;8.162;2023-02-23T03:39:12;6.63;;;1.33;;
7659;SDS011;3872;47.902;8.162;2023-02-23T03:42:03;4.03;;;1.43;;
7659;SDS011;3872;47.902;8.162;2023-02-23T03:44:53;3.93;;;1.00;;
7659;SDS011;3872;47.902;8.162;2023-02-23T03:47:39;4.53;;;1.20;;
7659;SDS011;3872;47.902;8.162;2023-02-23T03:50:27;5.30;;;1.33;;
7659;SDS011;3872;47.902;8.162;2023-02-23T03:53:15;4.30;;;1.53;;
7659;SDS011;3872;47.902;8.162;2023-02-23T03:56:05;5.80;;;1.20;;
7659;SDS011;3872;47.902;8.162;2023-02-23T03:58:57;3.80;;;1.13;;
7659;SDS011;3872;47.902;8.162;2023-02-23T04:01:45;4.10;;;1.37;;
7659;SDS011;3872;47.902;8.162;2023-02-23T04:04:31;4.23;;;1.37;;
7659;SDS011;3872;47.902;8.162;2023-02-23T04:07:17;4.20;;;1.43;;
7659;SDS011;3872;47.902;8.162;2023-02-23T04:10:03;4.47;;;1.60;;
7659;SDS011;3872;47.902;8.162;2023-02-23T04:12:51;5.67;;;1.37;;
7659;SDS011;3872;47.902;8.162;2023-02-23T04:15:43;5.90;;;1.43;;
7659;SDS011;3872;47.902;8.162;2023-02-23T04:18:15;8.77;;;1.30;;
7659;SDS011;3872;47.902;8.162;2023-02-23T04:20:43;11.63;;;1.80;;
7659;SDS011;3872;47.902;8.162;2023-02-23T04:23:09;3.87;;;1.30;;
7659;SDS011;3872;47.902;8.162;2023-02-23T04:25:36;5.60;;;1.50;;
7659;SDS011;3872;47.902;8.162;2023-02-23T04:28:03;4.10;;;1.30;;
7659;SDS011;3872;47.902;8.162;2023-02-23T04:30:30;4.07;;;1.40;;
7659;SDS011;3872;47.902;8.162;2023-02-23T04:32:56;5.40;;;1.57;;
7659;SDS011;3872;47.902;8.162;2023-02-23T04:35:26;10.40;;;1.70;;
7659;SDS011;3872;47.902;8.162;2023-02-23T04:37:55;4.30;;;1.47;;
7659;SDS011;3872;47.902;8.162;2023-02-23T04:40:22;4.50;;;1.40;;
7659;SDS011;3872;47.902;8.162;2023-02-23T04:42:48;4.13;;;1.57;;
7659;SDS011;3872;47.902;8.162;2023-02-23T04:45:15;4.50;;;1.53;;
7659;SDS011;3872;47.902;8.162;2023-02-23T04:47:42;5.80;;;1.77;;
7659;SDS011;3872;47.902;8.162;2023-02-23T04:50:09;5.70;;;1.47;;
7659;SDS011;3872;47.902;8.162;2023-02-23T04:52:38;6.30;;;2.10;;
7659;SDS011;3872;47.902;8.162;2023-02-23T04:55:05;4.60;;;1.77;;
7659;SDS011;3872;47.902;8.162;2023-02-23T04:57:32;4.93;;;1.97;;
7659;SDS011;3872;47.902;8.162;2023-02-23T04:59:59;5.50;;;1.40;;
7659;SDS011;3872;47.902;8.162;2023-02-23T05:02:26;5.57;;;1.93;;
7659;SDS011;3872;47.902;8.162;2023-02-23T05:04:52;6.53;;;2.00;;
7659;SDS011;3872;47.902;8.162;2023-02-23T05:07:19;4.83;;;1.80;;
7659;SDS011;3872;47.902;8.162;2023-02-23T05:09:47;4.33;;;1.57;;
7659;SDS011;3872;47.902;8.162;2023-02-23T05:12:13;4.70;;;1.60;;
7659;SDS011;3872;47.902;8.162;2023-02-23T05:14:40;5.80;;;1.93;;
7659;SDS011;3872;47.902;8.162;2023-02-23T05:17:07;4.93;;;1.57;;
7659;SDS011;3872;47.902;8.162;2023-02-23T05:19:33;9.17;;;1.97;;
7659;SDS011;3872;47.902;8.162;2023-02-23T05:22:00;4.80;;;1.53;;
7659;SDS011;3872;47.902;8.162;2023-02-23T05:24:27;4.87;;;2.20;;
7659;SDS011;3872;47.902;8.162;2023-02-23T05:26:54;5.73;;;2.00;;
7659;SDS011;3872;47.902;8.162;2023-02-23T05:29:21;4.30;;;1.60;;
7659;SDS011;3872;47.902;8.162;2023-02-23T05:31:48;7.70;;;2.27;;
7659;SDS011;3872;47.902;8.162;2023-02-23T05:34:14;7.33;;;2.10;;
7659;SDS011;3872;47.902;8.162;2023-02-23T05:36:41;5.70;;;1.97;;
7659;SDS011;3872;47.902;8.162;2023-02-23T05:39:08;6.73;;;2.13;;
7659;SDS011;3872;47.902;8.162;2023-02-23T05:41:34;4.40;;;1.83;;
7659;SDS011;3872;47.902;8.162;2023-02-23T05:44:02;4.33;;;1.90;;
7659;SDS011;3872;47.902;8.162;2023-02-23T05:46:29;4.37;;;1.80;;
7659;SDS011;3872;47.902;8.162;2023-02-23T05:48:56;5.70;;;1.60;;
7659;SDS011;3872;47.902;8.162;2023-02-23T05:51:23;5.00;;;1.93;;
7659;SDS011;3872;47.902;8.162;2023-02-23T05:53:50;4.33;;;1.77;;
7659;SDS011;3872;47.902;8.162;2023-02-23T05:56:17;6.70;;;2.20;;
7659;SDS011;3872;47.902;8.162;2023-02-23T05:58:45;4.57;;;2.20;;
7659;SDS011;3872;47.902;8.162;2023-02-23T06:01:13;4.50;;;2.00;;
7659;SDS011;3872;47.902;8.162;2023-02-23T06:03:41;6.63;;;2.73;;
7659;SDS011;3872;47.902;8.162;2023-02-23T06:06:08;6.00;;;2.30;;
7659;SDS011;3872;47.902;8.162;2023-02-23T06:08:34;7.67;;;2.23;;
7659;SDS011;3872;47.902;8.162;2023-02-23T06:11:01;9.70;;;1.90;;
7659;SDS011;3872;47.902;8.162;2023-02-23T06:13:29;5.30;;;2.30;;
7659;SDS011;3872;47.902;8.162;2023-02-23T06:15:56;6.73;;;2.03;;
7659;SDS011;3872;47.902;8.162;2023-02-23T06:18:24;5.03;;;1.93;;
7659;SDS011;3872;47.902;8.162;2023-02-23T06:20:52;5.33;;;2.20;;
7659;SDS011;3872;47.902;8.162;2023-02-23T06:23:18;6.20;;;2.13;;
7659;SDS011;3872;47.902;8.162;2023-02-23T06:25:46;7.67;;;2.17;;
7659;SDS011;3872;47.902;8.162;2023-02-23T06:28:12;5.00;;;1.90;;
7659;SDS011;3872;47.902;8.162;2023-02-23T06:30:39;8.13;;;2.03;;
7659;SDS011;3872;47.902;8.162;2023-02-23T06:33:06;6.40;;;1.77;;
7659;SDS011;3872;47.902;8.162;2023-02-23T06:35:34;8.20;;;2.17;;
7659;SDS011;3872;47.902;8.162;2023-02-23T06:38:01;4.10;;;1.70;;
7659;SDS011;3872;47.902;8.162;2023-02-23T06:40:28;5.00;;;1.73;;
7659;SDS011;3872;47.902;8.162;2023-02-23T06:42:55;5.60;;;2.20;;
7659;SDS011;3872;47.902;8.162;2023-02-23T06:45:21;4.90;;;2.20;;
7659;SDS011;3872;47.902;8.162;2023-02-23T06:47:48;5.80;;;1.87;;
7659;SDS011;3872;47.902;8.162;2023-02-23T06:50:14;7.87;;;1.80;;
7659;SDS011;3872;47.902;8.162;2023-02-23T06:52:43;7.77;;;2.20;;
7659;SDS011;3872;47.902;8.162;2023-02-23T06:55:09;7.70;;;1.80;;
7659;SDS011;3872;47.902;8.162;2023-02-23T06:57:37;12.10;;;4.70;;
7659;SDS011;3872;47.902;8.162;2023-02-23T07:00:04;26.00;;;8.40;;
7659;SDS011;3872;47.902;8.162;2023-02-23T07:02:31;16.00;;;5.00;;
7659;SDS011;3872;47.902;8.162;2023-02-23T07:04:59;6.50;;;2.57;;
7659;SDS011;3872;47.902;8.162;2023-02-23T07:07:25;11.00;;;2.00;;
7659;SDS011;3872;47.902;8.162;2023-02-23T07:09:53;6.70;;;2.30;;
7659;SDS011;3872;47.902;8.162;2023-02-23T07:12:20;9.70;;;3.83;;
7659;SDS011;3872;47.902;8.162;2023-02-23T07:14:46;20.57;;;9.60;;
7659;SDS011;3872;47.902;8.162;2023-02-23T07:17:13;14.10;;;6.00;;
7659;SDS011;3872;47.902;8.162;2023-02-23T07:19:39;8.80;;;3.00;;
7659;SDS011;3872;47.902;8.162;2023-02-23T07:22:06;10.27;;;4.60;;
7659;SDS011;3872;47.902;8.162;2023-02-23T07:24:32;12.73;;;6.90;;
7659;SDS011;3872;47.902;8.162;2023-02-23T07:27:00;7.33;;;4.43;;
7659;SDS011;3872;47.902;8.162;2023-02-23T07:29:27;20.67;;;9.43;;
7659;SDS011;3872;47.902;8.162;2023-02-23T07:31:54;16.30;;;4.77;;
7659;SDS011;3872;47.902;8.162;2023-02-23T07:34:20;7.00;;;4.40;;
7659;SDS011;3872;47.902;8.162;2023-02-23T07:36:47;10.40;;;3.70;;
7659;SDS011;3872;47.902;8.162;2023-02-23T07:39:13;4.60;;;1.80;;
7659;SDS011;3872;47.902;8.162;2023-02-23T07:41:40;5.67;;;2.80;;
7659;SDS011;3872;47.902;8.162;2023-02-23T07:44:17;7.00;;;1.93;;
7659;SDS011;3872;47.902;8.162;2023-02-23T07:46:44;4.03;;;1.60;;
7659;SDS011;3872;47.902;8.162;2023-02-23T07:49:10;7.40;;;2.60;;
7659;SDS011;3872;47.902;8.162;2023-02-23T07:51:37;16.40;;;8.87;;
7659;SDS011;3872;47.902;8.162;2023-02-23T07:54:04;8.47;;;3.00;;
7659;SDS011;3872;47.902;8.162;2023-02-23T07:56:31;9.20;;;2.97;;
7659;SDS011;3872;47.902;8.162;2023-02-23T07:58:58;16.03;;;6.03;;
7659;SDS011;3872;47.902;8.162;2023-02-23T08:01:26;7.97;;;4.93;;
7659;SDS011;3872;47.902;8.162;2023-02-23T08:03:52;5.00;;;2.83;;
7659;SDS011;3872;47.902;8.162;2023-02-23T08:06:19;8.30;;;2.77;;
7659;SDS011;3872;47.902;8.162;2023-02-23T08:08:45;12.10;;;3.40;;
7659;SDS011;3872;47.902;8.162;2023-02-23T08:11:12;9.00;;;2.80;;
7659;SDS011;3872;47.902;8.162;2023-02-23T08:13:39;6.17;;;2.40;;
7659;SDS011;3872;47.902;8.162;2023-02-23T08:16:06;4.60;;;2.37;;
7659;SDS011;3872;47.902;8.162;2023-02-23T08:18:35;6.87;;;2.50;;
7659;SDS011;3872;47.902;8.162;2023-02-23T08:21:02;7.67;;;2.47;;
7659;SDS011;3872;47.902;8.162;2023-02-23T08:23:29;10.80;;;2.73;;
7659;SDS011;3872;47.902;8.162;2023-02-23T08:25:59;15.40;;;2.63;;
7659;SDS011;3872;47.902;8.162;2023-02-23T08:28:26;8.10;;;3.33;;
7659;SDS011;3872;47.902;8.162;2023-02-23T08:30:53;8.07;;;2.60;;
7659;SDS011;3872;47.902;8.162;2023-02-23T08:33:20;6.63;;;3.17;;
7659;SDS011;3872;47.902;8.162;2023-02-23T08:35:48;7.20;;;2.70;;
7659;SDS011;3872;47.902;8.162;2023-02-23T08:38:14;10.73;;;3.00;;
7659;SDS011;3872;47.902;8.162;2023-02-23T08:40:42;7.33;;;2.57;;
7659;SDS011;3872;47.902;8.162;2023-02-23T08:43:08;5.90;;;2.83;;
7659;SDS011;3872;47.902;8.162;2023-02-23T08:45:35;7.00;;;2.60;;
7659;SDS011;3872;47.902;8.162;2023-02-23T08:48:03;14.70;;;3.70;;
7659;SDS011;3872;47.902;8.162;2023-02-23T08:50:30;12.90;;;3.20;;
7659;SDS011;3872;47.902;8.162;2023-02-23T08:52:58;6.07;;;2.73;;
7659;SDS011;3872;47.902;8.162;2023-02-23T08:55:25;7.50;;;3.00;;
7659;SDS011;3872;47.902;8.162;2023-02-23T08:57:51;5.57;;;2.70;;
7659;SDS011;3872;47.902;8.162;2023-02-23T09:00:18;14.57;;;3.77;;
7659;SDS011;3872;47.902;8.162;2023-02-23T09:02:45;8.07;;;3.97;;
7659;SDS011;3872;47.902;8.162;2023-02-23T09:05:12;10.70;;;3.80;;
7659;SDS011;3872;47.902;8.162;2023-02-23T09:07:40;9.77;;;4.37;;
7659;SDS011;3872;47.902;8.162;2023-02-23T09:10:12;12.93;;;4.40;;
7659;SDS011;3872;47.902;8.162;2023-02-23T09:12:40;9.90;;;4.23;;
7659;SDS011;3872;47.902;8.162;2023-02-23T09:15:07;14.80;;;4.17;;
7659;SDS011;3872;47.902;8.162;2023-02-23T09:17:34;9.83;;;4.53;;
7659;SDS011;3872;47.902;8.162;2023-02-23T09:20:01;12.10;;;4.30;;
7659;SDS011;3872;47.902;8.162;2023-02-23T09:22:28;8.03;;;4.50;;
7659;SDS011;3872;47.902;8.162;2023-02-23T09:24:54;8.87;;;3.80;;
7659;SDS011;3872;47.902;8.162;2023-02-23T09:27:22;11.63;;;4.57;;
7659;SDS011;3872;47.902;8.162;2023-02-23T09:29:49;10.27;;;4.83;;
7659;SDS011;3872;47.902;8.162;2023-02-23T09:32:15;8.83;;;4.60;;
7659;SDS011;3872;47.902;8.162;2023-02-23T09:34:42;10.67;;;3.40;;
7659;SDS011;3872;47.902;8.162;2023-02-23T09:37:08;12.40;;;4.20;;
7659;SDS011;3872;47.902;8.162;2023-02-23T09:39:35;8.23;;;3.10;;
7659;SDS011;3872;47.902;8.162;2023-02-23T09:42:05;11.37;;;4.10;;
7659;SDS011;3872;47.902;8.162;2023-02-23T09:44:45;8.87;;;3.63;;
7659;SDS011;3872;47.902;8.162;2023-02-23T09:47:25;7.67;;;3.53;;
7659;SDS011;3872;47.902;8.162;2023-02-23T09:49:58;16.23;;;3.30;;
7659;SDS011;3872;47.902;8.162;2023-02-23T09:52:30;8.77;;;3.53;;
7659;SDS011;3872;47.902;8.162;2023-02-23T09:55:03;12.50;;;3.70;;
7659;SDS011;3872;47.902;8.162;2023-02-23T09:57:32;5.77;;;2.63;;
7659;SDS011;3872;47.902;8.162;2023-02-23T10:00:05;16.63;;;3.90;;
7659;SDS011;3872;47.902;8.162;2023-02-23T10:02:38;10.13;;;3.13;;
7659;SDS011;3872;47.902;8.162;2023-02-23T10:05:20;7.77;;;2.90;;
7659;SDS011;3872;47.902;8.162;2023-02-23T10:07:49;6.30;;;2.33;;
7659;SDS011;3872;47.902;8.162;2023-02-23T10:10:22;13.00;;;2.70;;
7659;SDS011;3872;47.902;8.162;2023-02-23T10:12:57;10.90;;;3.13;;
7659;SDS011;3872;47.902;8.162;2023-02-23T10:15:31;7.77;;;2.10;;
7659;SDS011;3872;47.902;8.162;2023-02-23T10:18:08;11.33;;;2.97;;
7659;SDS011;3872;47.902;8.162;2023-02-23T10:20:44;11.10;;;2.67;;
7659;SDS011;3872;47.902;8.162;2023-02-23T10:23:17;12.20;;;2.80;;
7659;SDS011;3872;47.902;8.162;2023-02-23T10:25:49;16.37;;;2.90;;
7659;SDS011;3872;47.902;8.162;2023-02-23T10:28:20;10.03;;;2.77;;
7659;SDS011;3872;47.902;8.162;2023-02-23T10:30:49;9.67;;;3.00;;
7659;SDS011;3872;47.902;8.162;2023-02-23T10:33:19;22.73;;;3.30;;
7659;SDS011;3872;47.902;8.162;2023-02-23T10:35:50;12.60;;;2.77;;
7659;SDS011;3872;47.902;8.162;2023-02-23T10:38:24;13.37;;;2.70;;
7659;SDS011;3872;47.902;8.162;2023-02-23T10:40:52;11.60;;;2.03;;
7659;SDS011;3872;47.902;8.162;2023-02-23T10:43:20;9.90;;;2.60;;
7659;SDS011;3872;47.902;8.162;2023-02-23T10:45:49;14.47;;;2.20;;
7659;SDS011;3872;47.902;8.162;2023-02-23T10:48:19;6.90;;;2.37;;
7659;SDS011;3872;47.902;8.162;2023-02-23T10:50:48;7.07;;;2.23;;
7659;SDS011;3872;47.902;8.162;2023-02-23T10:53:17;11.70;;;2.03;;
7659;SDS011;3872;47.902;8.162;2023-02-23T10:55:59;9.13;;;2.80;;
7659;SDS011;3872;47.902;8.162;2023-02-23T10:58:27;10.10;;;2.13;;
7659;SDS011;3872;47.902;8.162;2023-02-23T11:00:56;14.90;;;2.33;;
7659;SDS011;3872;47.902;8.162;2023-02-23T11:03:26;11.90;;;2.07;;
7659;SDS011;3872;47.902;8.162;2023-02-23T11:05:57;6.07;;;1.87;;
7659;SDS011;3872;47.902;8.162;2023-02-23T11:08:27;15.13;;;2.23;;
7659;SDS011;3872;47.902;8.162;2023-02-23T11:10:58;12.33;;;2.30;;
7659;SDS011;3872;47.902;8.162;2023-02-23T11:13:34;6.50;;;2.43;;
7659;SDS011;3872;47.902;8.162;2023-02-23T11:16:05;13.50;;;2.80;;
7659;SDS011;3872;47.902;8.162;2023-02-23T11:18:35;13.33;;;1.93;;
7659;SDS011;3872;47.902;8.162;2023-02-23T11:21:03;20.57;;;2.33;;
7659;SDS011;3872;47.902;8.162;2023-02-23T11:23:36;8.60;;;2.30;;
7659;SDS011;3872;47.902;8.162;2023-02-23T11:26:05;20.00;;;2.60;;
7659;SDS011;3872;47.902;8.162;2023-02-23T11:28:46;7.60;;;1.67;;
7659;SDS011;3872;47.902;8.162;2023-02-23T11:31:19;18.33;;;2.10;;
7659;SDS011;3872;47.902;8.162;2023-02-23T11:33:48;16.87;;;3.00;;
7659;SDS011;3872;47.902;8.162;2023-02-23T11:36:16;9.73;;;2.07;;
7659;SDS011;3872;47.902;8.162;2023-02-23T11:38:55;6.90;;;2.00;;
7659;SDS011;3872;47.902;8.162;2023-02-23T11:41:27;7.30;;;1.80;;
7659;SDS011;3872;47.902;8.162;2023-02-23T11:43:56;17.10;;;1.93;;
7659;SDS011;3872;47.902;8.162;2023-02-23T11:46:27;10.40;;;2.17;;
7659;SDS011;3872;47.902;8.162;2023-02-23T11:48:56;7.80;;;2.23;;
7659;SDS011;3872;47.902;8.162;2023-02-23T11:51:25;9.43;;;2.10;;
7659;SDS011;3872;47.902;8.162;2023-02-23T11:53:54;15.30;;;1.70;;
7659;SDS011;3872;47.902;8.162;2023-02-23T11:56:21;12.67;;;2.10;;
7659;SDS011;3872;47.902;8.162;2023-02-23T11:58:50;11.10;;;1.83;;
7659;SDS011;3872;47.902;8.162;2023-02-23T12:01:19;12.03;;;2.30;;
7659;SDS011;3872;47.902;8.162;2023-02-23T12:03:50;8.83;;;1.90;;
7659;SDS011;3872;47.902;8.162;2023-02-23T12:06:25;11.23;;;2.10;;
7659;SDS011;3872;47.902;8.162;2023-02-23T12:08:55;8.53;;;1.50;;
7659;SDS011;3872;47.902;8.162;2023-02-23T12:11:27;8.70;;;1.83;;
7659;SDS011;3872;47.902;8.162;2023-02-23T12:14:00;9.60;;;1.97;;
7659;SDS011;3872;47.902;8.162;2023-02-23T12:16:31;6.47;;;1.60;;
7659;SDS011;3872;47.902;8.162;2023-02-23T12:19:05;6.93;;;2.17;;
7659;SDS011;3872;47.902;8.162;2023-02-23T12:21:44;5.90;;;1.83;;
7659;SDS011;3872;47.902;8.162;2023-02-23T12:24:14;7.20;;;1.83;;
7659;SDS011;3872;47.902;8.162;2023-02-23T12:26:49;6.47;;;1.67;;
7659;SDS011;3872;47.902;8.162;2023-02-23T12:29:20;6.97;;;2.30;;
7659;SDS011;3872;47.902;8.162;2023-02-23T12:31:55;17.10;;;2.00;;
7659;SDS011;3872;47.902;8.162;2023-02-23T12:34:29;8.93;;;2.20;;
7659;SDS011;3872;47.902;8.162;2023-02-23T12:37:03;11.20;;;2.10;;
7659;SDS011;3872;47.902;8.162;2023-02-23T12:39:44;10.90;;;2.20;;
7659;SDS011;3872;47.902;8.162;2023-02-23T12:42:15;11.00;;;3.00;;
7659;SDS011;3872;47.902;8.162;2023-02-23T12:44:48;9.20;;;2.23;;
7659;SDS011;3872;47.902;8.162;2023-02-23T12:47:20;7.07;;;2.70;;
7659;SDS011;3872;47.902;8.162;2023-02-23T12:49:55;11.20;;;2.47;;
7659;SDS011;3872;47.902;8.162;2023-02-23T12:52:31;12.60;;;3.73;;
7659;SDS011;3872;47.902;8.162;2023-02-23T12:55:02;17.83;;;3.37;;
7659;SDS011;3872;47.902;8.162;2023-02-23T12:57:29;9.93;;;3.80;;
7659;SDS011;3872;47.902;8.162;2023-02-23T13:00:10;8.07;;;2.70;;
7659;SDS011;3872;47.902;8.162;2023-02-23T13:03:01;9.87;;;3.50;;
7659;SDS011;3872;47.902;8.162;2023-02-23T13:05:44;11.80;;;3.87;;
7659;SDS011;3872;47.902;8.162;2023-02-23T13:08:18;10.90;;;3.07;;
7659;SDS011;3872;47.902;8.162;2023-02-23T13:10:56;7.60;;;2.80;;
7659;SDS011;3872;47.902;8.162;2023-02-23T13:13:32;7.53;;;3.00;;
7659;SDS011;3872;47.902;8.162;2023-02-23T13:16:08;16.60;;;3.30;;
7659;SDS011;3872;47.902;8.162;2023-02-23T13:18:42;15.70;;;3.17;;
7659;SDS011;3872;47.902;8.162;2023-02-23T13:21:14;9.73;;;2.90;;
7659;SDS011;3872;47.902;8.162;2023-02-23T13:23:47;14.90;;;3.27;;
7659;SDS011;3872;47.902;8.162;2023-02-23T13:26:27;19.73;;;4.00;;
7659;SDS011;3872;47.902;8.162;2023-02-23T13:29:04;13.20;;;3.30;;
7659;SDS011;3872;47.902;8.162;2023-02-23T13:31:34;20.73;;;3.83;;
7659;SDS011;3872;47.902;8.162;2023-02-23T13:34:04;14.73;;;3.40;;
7659;SDS011;3872;47.902;8.162;2023-02-23T13:36:36;8.73;;;3.27;;
7659;SDS011;3872;47.902;8.162;2023-02-23T13:39:09;10.47;;;2.87;;
7659;SDS011;3872;47.902;8.162;2023-02-23T13:42:19;11.60;;;3.07;;
7659;SDS011;3872;47.902;8.162;2023-02-23T13:44:57;12.73;;;2.80;;
7659;SDS011;3872;47.902;8.162;2023-02-23T13:47:38;11.17;;;3.00;;
7659;SDS011;3872;47.902;8.162;2023-02-23T13:50:15;18.33;;;3.67;;
7659;SDS011;3872;47.902;8.162;2023-02-23T13:52:48;15.80;;;3.67;;
7659;SDS011;3872;47.902;8.162;2023-02-23T13:58:21;22.53;;;3.53;;
7659;SDS011;3872;47.902;8.162;2023-02-23T14:00:53;11.63;;;3.60;;
7659;SDS011;3872;47.902;8.162;2023-02-23T14:03:28;10.83;;;3.37;;
7659;SDS011;3872;47.902;8.162;2023-02-23T14:05:58;17.93;;;3.57;;
7659;SDS011;3872;47.902;8.162;2023-02-23T14:08:29;7.40;;;2.53;;
7659;SDS011;3872;47.902;8.162;2023-02-23T14:10:59;9.40;;;1.87;;
7659;SDS011;3872;47.902;8.162;2023-02-23T14:13:28;14.30;;;2.40;;
7659;SDS011;3872;47.902;8.162;2023-02-23T14:16:13;14.50;;;2.80;;
7659;SDS011;3872;47.902;8.162;2023-02-23T14:18:55;6.20;;;1.70;;
7659;SDS011;3872;47.902;8.162;2023-02-23T14:21:30;6.83;;;1.80;;
7659;SDS011;3872;47.902;8.162;2023-02-23T14:24:03;6.63;;;2.10;;
7659;SDS011;3872;47.902;8.162;2023-02-23T14:26:40;12.60;;;2.30;;
7659;SDS011;3872;47.902;8.162;2023-02-23T14:29:10;10.40;;;2.20;;
7659;SDS011;3872;47.902;8.162;2023-02-23T14:31:56;12.00;;;2.17;;
7659;SDS011;3872;47.902;8.162;2023-02-23T14:34:48;9.30;;;2.13;;
7659;SDS011;3872;47.902;8.162;2023-02-23T14:37:17;9.07;;;1.77;;
7659;SDS011;3872;47.902;8.162;2023-02-23T14:39:59;24.63;;;2.77;;
7659;SDS011;3872;47.902;8.162;2023-02-23T14:42:29;11.03;;;3.00;;
7659;SDS011;3872;47.902;8.162;2023-02-23T14:44:57;13.03;;;2.87;;
7659;SDS011;3872;47.902;8.162;2023-02-23T14:47:30;13.80;;;2.63;;
7659;SDS011;3872;47.902;8.162;2023-02-23T14:50:09;11.77;;;3.80;;
7659;SDS011;3872;47.902;8.162;2023-02-23T14:52:41;7.70;;;2.90;;
7659;SDS011;3872;47.902;8.162;2023-02-23T14:55:15;14.10;;;2.73;;
7659;SDS011;3872;47.902;8.162;2023-02-23T14:57:46;16.77;;;3.97;;
7659;SDS011;3872;47.902;8.162;2023-02-23T15:00:16;10.03;;;3.00;;
7659;SDS011;3872;47.902;8.162;2023-02-23T15:02:54;22.23;;;4.00;;
7659;SDS011;3872;47.902;8.162;2023-02-23T15:05:23;9.40;;;3.33;;
7659;SDS011;3872;47.902;8.162;2023-02-23T15:07:52;13.43;;;3.50;;
7659;SDS011;3872;47.902;8.162;2023-02-23T15:10:24;10.93;;;2.80;;
7659;SDS011;3872;47.902;8.162;2023-02-23T15:12:54;8.80;;;3.40;;
7659;SDS011;3872;47.902;8.162;2023-02-23T15:15:22;12.47;;;3.70;;
7659;SDS011;3872;47.902;8.162;2023-02-23T15:17:52;11.07;;;3.60;;
7659;SDS011;3872;47.902;8.162;2023-02-23T15:20:22;16.00;;;4.10;;
7659;SDS011;3872;47.902;8.162;2023-02-23T15:22:57;11.10;;;3.33;;
7659;SDS011;3872;47.902;8.162;2023-02-23T15:25:32;15.70;;;3.80;;
7659;SDS011;3872;47.902;8.162;2023-02-23T15:28:08;10.90;;;4.30;;
7659;SDS011;3872;47.902;8.162;2023-02-23T15:30:42;20.57;;;3.97;;
7659;SDS011;3872;47.902;8.162;2023-02-23T15:33:11;9.83;;;3.20;;
7659;SDS011;3872;47.902;8.162;2023-02-23T15:35:39;14.63;;;3.70;;
7659;SDS011;3872;47.902;8.162;2023-02-23T15:38:13;15.70;;;4.13;;
7659;SDS011;3872;47.902;8.162;2023-02-23T15:40:46;20.20;;;4.00;;
7659;SDS011;3872;47.902;8.162;2023-02-23T15:43:17;21.40;;;3.97;;
7659;SDS011;3872;47.902;8.162;2023-02-23T15:45:44;24.70;;;4.80;;
7659;SDS011;3872;47.902;8.162;2023-02-23T15:48:15;14.33;;;3.90;;
7659;SDS011;3872;47.902;8.162;2023-02-23T15:50:47;18.70;;;4.30;;